sensor_id;sensor_type;location;lat;lon;timestamp;pressure;altitude;pressure_sealevel;temperature;humidity
61537;BME280;48695;53.480;-6.300;2023-01-28T00:00:20;102684.09;;;6.11;60.68
61537;BME280;48695;53.480;-6.300;2023-01-28T00:02:46;102688.31;;;6.08;61.01
61537;BME280;48695;53.480;-6.300;2023-01-28T00:05:11;102678.72;;;6.04;60.70
61537;BME280;48695;53.480;-6.300;2023-01-28T00:07:37;102682.09;;;6.03;60.68
61537;BME280;48695;53.480;-6.300;2023-01-28T00:10:02;102682.91;;;6.00;60.73
61537;BME280;48695;53.480;-6.300;2023-01-28T00:12:27;102671.56;;;5.96;60.58
61537;BME280;48695;53.480;-6.300;2023-01-28T00:14:53;102680.19;;;5.95;60.58
61537;BME280;48695;53.480;-6.300;2023-01-28T00:17:19;102668.91;;;5.93;60.73
61537;BME280;48695;53.480;-6.300;2023-01-28T00:19:44;102669.63;;;5.89;60.98
61537;BME280;48695;53.480;-6.300;2023-01-28T00:22:09;102672.97;;;5.85;60.75
61537;BME280;48695;53.480;-6.300;2023-01-28T00:24:34;102677.16;;;5.82;60.91
61537;BME280;48695;53.480;-6.300;2023-01-28T00:27:00;102676.22;;;5.78;61.03
61537;BME280;48695;53.480;-6.300;2023-01-28T00:29:25;102665.75;;;5.75;61.21
61537;BME280;48695;53.480;-6.300;2023-01-28T00:31:51;102674.38;;;5.74;61.18
61537;BME280;48695;53.480;-6.300;2023-01-28T00:34:16;102682.06;;;5.71;61.27
61537;BME280;48695;53.480;-6.300;2023-01-28T00:36:41;102685.50;;;5.71;61.53
61537;BME280;48695;53.480;-6.300;2023-01-28T00:39:09;102670.84;;;5.72;61.54
61537;BME280;48695;53.480;-6.300;2023-01-28T00:41:35;102678.69;;;5.73;61.59
61537;BME280;48695;53.480;-6.300;2023-01-28T00:44:01;102675.25;;;5.75;61.96
61537;BME280;48695;53.480;-6.300;2023-01-28T00:46:26;102678.75;;;5.77;62.12
61537;BME280;48695;53.480;-6.300;2023-01-28T00:48:52;102671.03;;;5.78;62.22
61537;BME280;48695;53.480;-6.300;2023-01-28T00:51:17;102662.44;;;5.79;61.95
61537;BME280;48695;53.480;-6.300;2023-01-28T00:53:44;102654.72;;;5.82;62.01
61537;BME280;48695;53.480;-6.300;2023-01-28T00:56:10;102650.47;;;5.84;61.89
61537;BME280;48695;53.480;-6.300;2023-01-28T00:58:36;102658.31;;;5.87;62.31
61537;BME280;48695;53.480;-6.300;2023-01-28T01:03:33;102655.81;;;5.90;62.27
61537;BME280;48695;53.480;-6.300;2023-01-28T01:05:59;102646.38;;;5.92;62.00
61537;BME280;48695;53.480;-6.300;2023-01-28T01:08:25;102646.38;;;5.92;62.09
61537;BME280;48695;53.480;-6.300;2023-01-28T01:10:59;102645.56;;;5.93;61.91
61537;BME280;48695;53.480;-6.300;2023-01-28T01:13:24;102647.31;;;5.94;62.06
61537;BME280;48695;53.480;-6.300;2023-01-28T01:15:49;102643.88;;;5.95;61.95
61537;BME280;48695;53.480;-6.300;2023-01-28T01:18:14;102638.72;;;5.95;62.30
61537;BME280;48695;53.480;-6.300;2023-01-28T01:20:40;102628.34;;;5.95;62.18
61537;BME280;48695;53.480;-6.300;2023-01-28T01:23:09;102629.22;;;5.96;62.37
61537;BME280;48695;53.480;-6.300;2023-01-28T01:25:34;102624.91;;;5.96;62.35
61537;BME280;48695;53.480;-6.300;2023-01-28T01:28:00;102637.03;;;5.97;62.28
61537;BME280;48695;53.480;-6.300;2023-01-28T01:30:25;102634.44;;;5.97;62.41
61537;BME280;48695;53.480;-6.300;2023-01-28T01:32:51;102629.31;;;5.99;62.18
61537;BME280;48695;53.480;-6.300;2023-01-28T01:35:16;102629.31;;;5.99;62.76
61537;BME280;48695;53.480;-6.300;2023-01-28T01:37:42;102624.16;;;6.01;62.31
61537;BME280;48695;53.480;-6.300;2023-01-28T01:40:09;102618.13;;;6.02;62.89
61537;BME280;48695;53.480;-6.300;2023-01-28T01:42:34;102609.50;;;6.03;62.67
61537;BME280;48695;53.480;-6.300;2023-01-28T01:45:03;102608.72;;;6.05;62.71
61537;BME280;48695;53.480;-6.300;2023-01-28T01:47:38;102604.41;;;6.06;63.15
61537;BME280;48695;53.480;-6.300;2023-01-28T01:50:08;102609.69;;;6.09;62.52
61537;BME280;48695;53.480;-6.300;2023-01-28T01:52:37;102610.56;;;6.09;62.94
61537;BME280;48695;53.480;-6.300;2023-01-28T01:55:03;102626.16;;;6.11;62.86
61537;BME280;48695;53.480;-6.300;2023-01-28T01:57:31;102619.28;;;6.13;63.02
61537;BME280;48695;53.480;-6.300;2023-01-28T01:59:58;102618.47;;;6.14;63.34
61537;BME280;48695;53.480;-6.300;2023-01-28T02:02:31;102627.16;;;6.16;63.48
61537;BME280;48695;53.480;-6.300;2023-01-28T02:04:59;102628.97;;;6.18;63.17
61537;BME280;48695;53.480;-6.300;2023-01-28T02:07:24;102625.41;;;6.15;63.49
61537;BME280;48695;53.480;-6.300;2023-01-28T02:09:50;102644.63;;;6.23;63.47
61537;BME280;48695;53.480;-6.300;2023-01-28T02:12:17;102642.09;;;6.24;63.68
61537;BME280;48695;53.480;-6.300;2023-01-28T02:17:40;102633.34;;;6.21;63.75
61537;BME280;48695;53.480;-6.300;2023-01-28T02:20:06;102650.94;;;6.33;63.47
61537;BME280;48695;53.480;-6.300;2023-01-28T02:22:48;102646.63;;;6.33;63.88
61537;BME280;48695;53.480;-6.300;2023-01-28T02:30:20;102652.78;;;6.37;63.80
61537;BME280;48695;53.480;-6.300;2023-01-28T02:35:27;102658.06;;;6.40;63.80
61537;BME280;48695;53.480;-6.300;2023-01-28T02:38:03;102652.91;;;6.41;64.07
61537;BME280;48695;53.480;-6.300;2023-01-28T02:40:31;102655.50;;;6.41;64.11
61537;BME280;48695;53.480;-6.300;2023-01-28T02:42:58;102646.84;;;6.42;64.34
61537;BME280;48695;53.480;-6.300;2023-01-28T02:45:29;102648.59;;;6.43;64.39
61537;BME280;48695;53.480;-6.300;2023-01-28T02:48:15;102642.59;;;6.44;64.00
61537;BME280;48695;53.480;-6.300;2023-01-28T02:50:46;102636.56;;;6.45;64.20
61537;BME280;48695;53.480;-6.300;2023-01-28T02:53:20;102633.13;;;6.46;64.42
61537;BME280;48695;53.480;-6.300;2023-01-28T02:58:55;102618.53;;;6.50;64.13
61537;BME280;48695;53.480;-6.300;2023-01-28T03:04:03;102617.69;;;6.53;64.22
61537;BME280;48695;53.480;-6.300;2023-01-28T03:06:35;102610.84;;;6.55;64.60
61537;BME280;48695;53.480;-6.300;2023-01-28T03:09:03;102598.78;;;6.57;64.81
61537;BME280;48695;53.480;-6.300;2023-01-28T03:14:31;102594.47;;;6.59;64.71
61537;BME280;48695;53.480;-6.300;2023-01-28T03:20:12;102595.41;;;6.61;64.76
61537;BME280;48695;53.480;-6.300;2023-01-28T03:22:57;102600.59;;;6.61;64.59
61537;BME280;48695;53.480;-6.300;2023-01-28T03:25:44;102619.69;;;6.63;64.62
61537;BME280;48695;53.480;-6.300;2023-01-28T03:28:28;102627.47;;;6.63;64.87
61537;BME280;48695;53.480;-6.300;2023-01-28T03:31:15;102624.88;;;6.63;64.52
61537;BME280;48695;53.480;-6.300;2023-01-28T03:34:00;102624.88;;;6.63;64.86
61537;BME280;48695;53.480;-6.300;2023-01-28T03:36:45;102626.63;;;6.64;64.80
61537;BME280;48695;53.480;-6.300;2023-01-28T03:39:13;102607.56;;;6.63;64.73
61537;BME280;48695;53.480;-6.300;2023-01-28T03:41:38;102611.03;;;6.64;65.03
61537;BME280;48695;53.480;-6.300;2023-01-28T03:44:03;102606.69;;;6.63;64.98
61537;BME280;48695;53.480;-6.300;2023-01-28T03:46:47;102598.03;;;6.62;64.79
61537;BME280;48695;53.480;-6.300;2023-01-28T03:49:14;102604.06;;;6.61;64.98
61537;BME280;48695;53.480;-6.300;2023-01-28T03:51:39;102615.34;;;6.62;64.99
61537;BME280;48695;53.480;-6.300;2023-01-28T03:54:04;102621.38;;;6.61;65.31
61537;BME280;48695;53.480;-6.300;2023-01-28T03:56:30;102620.50;;;6.60;64.92
61537;BME280;48695;53.480;-6.300;2023-01-28T03:59:02;102614.44;;;6.60;65.31
61537;BME280;48695;53.480;-6.300;2023-01-28T04:01:27;102610.13;;;6.60;65.64
61537;BME280;48695;53.480;-6.300;2023-01-28T04:03:52;102610.13;;;6.60;65.62
61537;BME280;48695;53.480;-6.300;2023-01-28T04:06:17;102614.44;;;6.60;65.33
61537;BME280;48695;53.480;-6.300;2023-01-28T04:08:43;102613.56;;;6.59;65.61
61537;BME280;48695;53.480;-6.300;2023-01-28T04:11:17;102604.88;;;6.59;65.22
61537;BME280;48695;53.480;-6.300;2023-01-28T04:13:44;102616.09;;;6.58;65.56
61537;BME280;48695;53.480;-6.300;2023-01-28T04:16:10;102607.44;;;6.57;65.21
61537;BME280;48695;53.480;-6.300;2023-01-28T04:18:35;102603.97;;;6.57;65.67
61537;BME280;48695;53.480;-6.300;2023-01-28T04:21:01;102612.59;;;6.56;65.71
61537;BME280;48695;53.480;-6.300;2023-01-28T04:23:26;102608.28;;;6.56;65.71
61537;BME280;48695;53.480;-6.300;2023-01-28T04:25:53;102617.78;;;6.56;65.40
61537;BME280;48695;53.480;-6.300;2023-01-28T04:28:19;102610.84;;;6.55;65.61
61537;BME280;48695;53.480;-6.300;2023-01-28T04:30:44;102605.66;;;6.55;66.04
61537;BME280;48695;53.480;-6.300;2023-01-28T04:33:09;102614.31;;;6.55;66.00
61537;BME280;48695;53.480;-6.300;2023-01-28T04:35:34;102609.16;;;6.57;66.39
61537;BME280;48695;53.480;-6.300;2023-01-28T04:38:00;102616.94;;;6.57;66.18
61537;BME280;48695;53.480;-6.300;2023-01-28T04:40:25;102616.94;;;6.57;66.20
61537;BME280;48695;53.480;-6.300;2023-01-28T04:42:56;102612.66;;;6.59;65.99
61537;BME280;48695;53.480;-6.300;2023-01-28T04:45:22;102615.22;;;6.57;66.40
61537;BME280;48695;53.480;-6.300;2023-01-28T04:47:47;102623.88;;;6.58;66.18
61537;BME280;48695;53.480;-6.300;2023-01-28T04:50:12;102635.13;;;6.57;66.43
61537;BME280;48695;53.480;-6.300;2023-01-28T04:52:37;102624.72;;;6.57;66.02
61537;BME280;48695;53.480;-6.300;2023-01-28T04:55:03;102623.81;;;6.55;66.23
61537;BME280;48695;53.480;-6.300;2023-01-28T04:57:28;102627.31;;;6.55;66.39
61537;BME280;48695;53.480;-6.300;2023-01-28T04:59:53;102622.09;;;6.55;66.28
61537;BME280;48695;53.480;-6.300;2023-01-28T05:02:19;102626.34;;;6.53;66.38
61537;BME280;48695;53.480;-6.300;2023-01-28T05:04:44;102636.81;;;6.55;66.51
61537;BME280;48695;53.480;-6.300;2023-01-28T05:07:09;102647.19;;;6.55;66.63
61537;BME280;48695;53.480;-6.300;2023-01-28T05:09:34;102647.19;;;6.55;66.69
61537;BME280;48695;53.480;-6.300;2023-01-28T05:12:00;102647.19;;;6.55;66.96
61537;BME280;48695;53.480;-6.300;2023-01-28T05:14:26;102633.38;;;6.56;67.18
61537;BME280;48695;53.480;-6.300;2023-01-28T05:16:51;102639.44;;;6.56;66.82
61537;BME280;48695;53.480;-6.300;2023-01-28T05:19:16;102646.34;;;6.56;66.81
61537;BME280;48695;53.480;-6.300;2023-01-28T05:21:41;102642.88;;;6.55;67.28
61537;BME280;48695;53.480;-6.300;2023-01-28T05:24:07;102643.75;;;6.56;67.24
61537;BME280;48695;53.480;-6.300;2023-01-28T05:26:32;102645.50;;;6.57;67.40
61537;BME280;48695;53.480;-6.300;2023-01-28T05:28:57;102652.41;;;6.56;67.62
61537;BME280;48695;53.480;-6.300;2023-01-28T05:31:23;102653.28;;;6.57;67.59
61537;BME280;48695;53.480;-6.300;2023-01-28T05:33:48;102658.44;;;6.55;67.82
61537;BME280;48695;53.480;-6.300;2023-01-28T05:36:13;102657.56;;;6.55;67.61
61537;BME280;48695;53.480;-6.300;2023-01-28T05:38:39;102661.88;;;6.54;67.93
61537;BME280;48695;53.480;-6.300;2023-01-28T05:41:04;102658.34;;;6.52;67.59
61537;BME280;48695;53.480;-6.300;2023-01-28T05:43:29;102653.16;;;6.52;68.02
61537;BME280;48695;53.480;-6.300;2023-01-28T05:45:54;102641.03;;;6.51;68.14
61537;BME280;48695;53.480;-6.300;2023-01-28T05:48:20;102636.72;;;6.52;68.14
61537;BME280;48695;53.480;-6.300;2023-01-28T05:50:48;102636.72;;;6.52;68.11
61537;BME280;48695;53.480;-6.300;2023-01-28T05:53:13;102643.63;;;6.51;67.84
61537;BME280;48695;53.480;-6.300;2023-01-28T05:55:38;102643.59;;;6.49;68.40
61537;BME280;48695;53.480;-6.300;2023-01-28T05:58:03;102640.13;;;6.49;68.36
61537;BME280;48695;53.480;-6.300;2023-01-28T06:00:29;102637.47;;;6.47;68.35
61537;BME280;48695;53.480;-6.300;2023-01-28T06:02:54;102634.84;;;6.46;68.46
61537;BME280;48695;53.480;-6.300;2023-01-28T06:05:19;102642.59;;;6.44;68.18
61537;BME280;48695;53.480;-6.300;2023-01-28T06:07:45;102637.41;;;6.44;68.30
61537;BME280;48695;53.480;-6.300;2023-01-28T06:10:11;102630.41;;;6.42;68.08
61537;BME280;48695;53.480;-6.300;2023-01-28T06:12:36;102643.34;;;6.40;68.34
61537;BME280;48695;53.480;-6.300;2023-01-28T06:15:01;102645.94;;;6.40;68.37
61537;BME280;48695;53.480;-6.300;2023-01-28T06:17:26;102642.47;;;6.40;68.39
61537;BME280;48695;53.480;-6.300;2023-01-28T06:19:52;102633.00;;;6.42;68.79
61537;BME280;48695;53.480;-6.300;2023-01-28T06:22:17;102641.66;;;6.42;68.74
61537;BME280;48695;53.480;-6.300;2023-01-28T06:24:42;102635.63;;;6.43;68.70
61537;BME280;48695;53.480;-6.300;2023-01-28T06:27:07;102626.19;;;6.45;69.00
61537;BME280;48695;53.480;-6.300;2023-01-28T06:29:33;102631.38;;;6.45;68.81
61537;BME280;48695;53.480;-6.300;2023-01-28T06:31:58;102634.88;;;6.47;68.98
61537;BME280;48695;53.480;-6.300;2023-01-28T06:34:23;102634.88;;;6.47;69.12
61537;BME280;48695;53.480;-6.300;2023-01-28T06:36:48;102635.81;;;6.49;68.88
61537;BME280;48695;53.480;-6.300;2023-01-28T06:39:15;102634.09;;;6.50;68.95
61537;BME280;48695;53.480;-6.300;2023-01-28T06:41:40;102636.72;;;6.52;68.94
61537;BME280;48695;53.480;-6.300;2023-01-28T06:44:05;102644.53;;;6.53;69.38
61537;BME280;48695;53.480;-6.300;2023-01-28T06:46:30;102638.56;;;6.56;69.40
61537;BME280;48695;53.480;-6.300;2023-01-28T06:48:56;102622.97;;;6.56;69.30
61537;BME280;48695;53.480;-6.300;2023-01-28T06:51:21;102626.47;;;6.58;69.58
61537;BME280;48695;53.480;-6.300;2023-01-28T06:53:46;102620.44;;;6.59;69.52
61537;BME280;48695;53.480;-6.300;2023-01-28T06:56:11;102611.84;;;6.60;69.66
61537;BME280;48695;53.480;-6.300;2023-01-28T06:58:37;102614.44;;;6.60;69.42
61537;BME280;48695;53.480;-6.300;2023-01-28T07:01:02;102622.22;;;6.60;69.30
61537;BME280;48695;53.480;-6.300;2023-01-28T07:03:27;102610.13;;;6.60;69.60
61537;BME280;48695;53.480;-6.300;2023-01-28T07:05:53;102624.81;;;6.60;69.56
61537;BME280;48695;53.480;-6.300;2023-01-28T07:08:18;102624.81;;;6.60;69.41
61537;BME280;48695;53.480;-6.300;2023-01-28T07:10:43;102616.19;;;6.61;69.31
61537;BME280;48695;53.480;-6.300;2023-01-28T07:13:09;102613.59;;;6.61;69.71
61537;BME280;48695;53.480;-6.300;2023-01-28T07:15:34;102611.88;;;6.61;69.69
61537;BME280;48695;53.480;-6.300;2023-01-28T07:18:00;102612.75;;;6.62;69.33
61537;BME280;48695;53.480;-6.300;2023-01-28T07:20:25;102612.75;;;6.62;69.43
61537;BME280;48695;53.480;-6.300;2023-01-28T07:22:50;102617.94;;;6.62;69.69
61537;BME280;48695;53.480;-6.300;2023-01-28T07:25:16;102607.56;;;6.62;70.20
61537;BME280;48695;53.480;-6.300;2023-01-28T07:27:47;102613.63;;;6.62;70.10
61537;BME280;48695;53.480;-6.300;2023-01-28T07:30:13;102611.84;;;6.60;69.99
61537;BME280;48695;53.480;-6.300;2023-01-28T07:32:38;102609.25;;;6.60;70.01
61537;BME280;48695;53.480;-6.300;2023-01-28T07:35:04;102617.84;;;6.59;70.10
61537;BME280;48695;53.480;-6.300;2023-01-28T07:37:29;102623.03;;;6.59;70.09
61537;BME280;48695;53.480;-6.300;2023-01-28T07:39:54;102621.38;;;6.61;69.89
61537;BME280;48695;53.480;-6.300;2023-01-28T07:42:20;102617.84;;;6.59;70.18
61537;BME280;48695;53.480;-6.300;2023-01-28T07:44:45;102626.53;;;6.59;70.13
61537;BME280;48695;53.480;-6.300;2023-01-28T07:47:10;102616.19;;;6.61;69.99
61537;BME280;48695;53.480;-6.300;2023-01-28T07:49:35;102617.06;;;6.61;70.09
61537;BME280;48695;53.480;-6.300;2023-01-28T07:52:03;102619.69;;;6.63;69.88
61537;BME280;48695;53.480;-6.300;2023-01-28T07:54:29;102614.53;;;6.64;70.10
61537;BME280;48695;53.480;-6.300;2023-01-28T07:56:54;102624.97;;;6.66;70.10
61537;BME280;48695;53.480;-6.300;2023-01-28T07:59:19;102633.66;;;6.68;70.07
61537;BME280;48695;53.480;-6.300;2023-01-28T08:01:44;102635.41;;;6.69;70.03
61537;BME280;48695;53.480;-6.300;2023-01-28T08:04:10;102627.66;;;6.70;70.28
61537;BME280;48695;53.480;-6.300;2023-01-28T08:06:35;102641.56;;;6.72;70.42
61537;BME280;48695;53.480;-6.300;2023-01-28T08:09:04;102643.31;;;6.73;70.01
61537;BME280;48695;53.480;-6.300;2023-01-28T08:11:30;102642.44;;;6.73;70.07
61537;BME280;48695;53.480;-6.300;2023-01-28T08:13:56;102635.56;;;6.75;70.51
61537;BME280;48695;53.480;-6.300;2023-01-28T08:16:21;102638.19;;;6.76;70.64
61537;BME280;48695;53.480;-6.300;2023-01-28T08:18:46;102646.88;;;6.79;70.43
61537;BME280;48695;53.480;-6.300;2023-01-28T08:21:11;102644.34;;;6.80;70.30
61537;BME280;48695;53.480;-6.300;2023-01-28T08:23:36;102647.84;;;6.82;70.79
61537;BME280;48695;53.480;-6.300;2023-01-28T08:26:02;102644.41;;;6.83;70.54
61537;BME280;48695;53.480;-6.300;2023-01-28T08:28:27;102646.16;;;6.84;70.56
61537;BME280;48695;53.480;-6.300;2023-01-28T08:30:55;102660.06;;;6.86;70.87
61537;BME280;48695;53.480;-6.300;2023-01-28T08:33:23;102659.22;;;6.87;70.68
61537;BME280;48695;53.480;-6.300;2023-01-28T08:35:48;102660.13;;;6.89;70.46
61537;BME280;48695;53.480;-6.300;2023-01-28T08:38:13;102663.66;;;6.91;70.75
61537;BME280;48695;53.480;-6.300;2023-01-28T08:40:42;102656.75;;;6.93;70.99
61537;BME280;48695;53.480;-6.300;2023-01-28T08:43:07;102663.72;;;6.94;70.76
61537;BME280;48695;53.480;-6.300;2023-01-28T08:45:32;102656.81;;;6.95;70.76
61537;BME280;48695;53.480;-6.300;2023-01-28T08:48:01;102651.66;;;6.96;70.93
61537;BME280;48695;53.480;-6.300;2023-01-28T08:50:27;102662.03;;;6.96;71.07
61537;BME280;48695;53.480;-6.300;2023-01-28T08:52:54;102659.47;;;6.98;70.58
61537;BME280;48695;53.480;-6.300;2023-01-28T08:55:19;102650.81;;;6.97;71.25
61537;BME280;48695;53.480;-6.300;2023-01-28T08:57:44;102656.94;;;6.99;70.87
61537;BME280;48695;53.480;-6.300;2023-01-28T09:00:10;102646.53;;;6.99;71.05
61537;BME280;48695;53.480;-6.300;2023-01-28T09:02:36;102643.00;;;6.96;70.94
61537;BME280;48695;53.480;-6.300;2023-01-28T09:05:02;102657.00;;;7.02;71.39
61537;BME280;48695;53.480;-6.300;2023-01-28T09:07:27;102655.31;;;7.05;71.44
61537;BME280;48695;53.480;-6.300;2023-01-28T09:09:52;102655.38;;;7.08;71.69
61537;BME280;48695;53.480;-6.300;2023-01-28T09:12:18;102660.69;;;7.12;71.78
61537;BME280;48695;53.480;-6.300;2023-01-28T09:14:43;102669.44;;;7.16;71.32
61537;BME280;48695;53.480;-6.300;2023-01-28T09:17:08;102665.22;;;7.21;71.40
61537;BME280;48695;53.480;-6.300;2023-01-28T09:19:33;102662.66;;;7.24;71.64
61537;BME280;48695;53.480;-6.300;2023-01-28T09:21:58;102666.25;;;7.29;71.65
61537;BME280;48695;53.480;-6.300;2023-01-28T09:24:24;102669.78;;;7.33;71.61
61537;BME280;48695;53.480;-6.300;2023-01-28T09:26:49;102667.28;;;7.36;71.49
61537;BME280;48695;53.480;-6.300;2023-01-28T09:29:15;102660.41;;;7.39;71.70
61537;BME280;48695;53.480;-6.300;2023-01-28T09:31:40;102663.09;;;7.42;71.78
61537;BME280;48695;53.480;-6.300;2023-01-28T09:34:06;102671.78;;;7.44;71.73
61537;BME280;48695;53.480;-6.300;2023-01-28T09:36:32;102678.81;;;7.48;71.31
61537;BME280;48695;53.480;-6.300;2023-01-28T09:38:57;102677.13;;;7.50;71.62
61537;BME280;48695;53.480;-6.300;2023-01-28T09:41:24;102676.28;;;7.51;71.27
61537;BME280;48695;53.480;-6.300;2023-01-28T09:46:31;102674.59;;;7.55;71.42
61537;BME280;48695;53.480;-6.300;2023-01-28T09:48:56;102685.97;;;7.59;71.45
61537;BME280;48695;53.480;-6.300;2023-01-28T09:51:28;102686.91;;;7.62;71.40
61537;BME280;48695;53.480;-6.300;2023-01-28T09:53:54;102684.34;;;7.64;71.74
61537;BME280;48695;53.480;-6.300;2023-01-28T09:56:24;102689.63;;;7.67;71.76
61537;BME280;48695;53.480;-6.300;2023-01-28T09:58:50;102693.09;;;7.67;71.79
61537;BME280;48695;53.480;-6.300;2023-01-28T10:11:27;102721.03;;;7.76;71.26
61537;BME280;48695;53.480;-6.300;2023-01-28T10:16:47;102722.81;;;7.80;71.31
61537;BME280;48695;53.480;-6.300;2023-01-28T10:19:21;102719.44;;;7.84;71.42
61537;BME280;48695;53.480;-6.300;2023-01-28T10:21:49;102720.38;;;7.88;71.54
61537;BME280;48695;53.480;-6.300;2023-01-28T10:24:28;102718.75;;;7.91;71.54
61537;BME280;48695;53.480;-6.300;2023-01-28T10:26:55;102717.13;;;7.96;71.76
61537;BME280;48695;53.480;-6.300;2023-01-28T10:29:22;102716.28;;;8.00;71.57
61537;BME280;48695;53.480;-6.300;2023-01-28T10:34:17;102721.69;;;8.10;71.89
61537;BME280;48695;53.480;-6.300;2023-01-28T10:36:42;102719.19;;;8.14;71.53
61537;BME280;48695;53.480;-6.300;2023-01-28T10:39:09;102725.34;;;8.18;71.53
61537;BME280;48695;53.480;-6.300;2023-01-28T10:41:36;102728.94;;;8.24;71.96
61537;BME280;48695;53.480;-6.300;2023-01-28T10:44:01;102716.84;;;8.28;71.61
61537;BME280;48695;53.480;-6.300;2023-01-28T10:46:31;102716.00;;;8.29;71.33
61537;BME280;48695;53.480;-6.300;2023-01-28T10:51:42;102703.09;;;8.35;71.58
61537;BME280;48695;53.480;-6.300;2023-01-28T10:54:16;102704.06;;;8.37;71.41
61537;BME280;48695;53.480;-6.300;2023-01-28T10:56:42;102701.53;;;8.42;71.73
61537;BME280;48695;53.480;-6.300;2023-01-28T11:01:52;102684.41;;;8.54;71.92
61537;BME280;48695;53.480;-6.300;2023-01-28T11:04:22;102676.66;;;8.59;71.54
61537;BME280;48695;53.480;-6.300;2023-01-28T11:09:24;102671.63;;;8.70;71.80
61537;BME280;48695;53.480;-6.300;2023-01-28T11:11:49;102670.84;;;8.74;71.90
61537;BME280;48695;53.480;-6.300;2023-01-28T11:14:25;102657.88;;;8.78;71.74
61537;BME280;48695;53.480;-6.300;2023-01-28T11:16:51;102656.25;;;8.83;71.88
61537;BME280;48695;53.480;-6.300;2023-01-28T11:19:18;102653.72;;;8.91;72.03
61537;BME280;48695;53.480;-6.300;2023-01-28T11:21:47;102662.50;;;8.96;72.03
61537;BME280;48695;53.480;-6.300;2023-01-28T11:24:13;102657.41;;;9.02;72.07
61537;BME280;48695;53.480;-6.300;2023-01-28T11:26:42;102661.84;;;9.09;72.00
61537;BME280;48695;53.480;-6.300;2023-01-28T11:31:53;102673.34;;;9.24;71.89
61537;BME280;48695;53.480;-6.300;2023-01-28T11:34:19;102677.78;;;9.31;71.69
61537;BME280;48695;53.480;-6.300;2023-01-28T11:36:51;102672.63;;;9.35;71.53
61537;BME280;48695;53.480;-6.300;2023-01-28T11:39:22;102683.13;;;9.39;71.46
61537;BME280;48695;53.480;-6.300;2023-01-28T11:41:49;102678.78;;;9.39;71.35
61537;BME280;48695;53.480;-6.300;2023-01-28T11:46:50;102678.78;;;9.39;70.99
61537;BME280;48695;53.480;-6.300;2023-01-28T11:49:33;102679.66;;;9.40;71.03
61537;BME280;48695;53.480;-6.300;2023-01-28T11:54:52;102670.03;;;9.37;71.07
61537;BME280;48695;53.480;-6.300;2023-01-28T11:57:23;102656.13;;;9.35;71.12
61537;BME280;48695;53.480;-6.300;2023-01-28T12:04:55;102656.91;;;9.28;70.71
61537;BME280;48695;53.480;-6.300;2023-01-28T12:07:33;102653.38;;;9.26;70.81
61537;BME280;48695;53.480;-6.300;2023-01-28T12:35:45;102614.34;;;9.32;71.26
61537;BME280;48695;53.480;-6.300;2023-01-28T12:49:05;102594.47;;;9.40;71.33
61537;BME280;48695;53.480;-6.300;2023-01-28T12:52:18;102590.16;;;9.42;71.40
61537;BME280;48695;53.480;-6.300;2023-01-28T12:56:52;102584.94;;;9.42;71.24
61537;BME280;48695;53.480;-6.300;2023-01-28T13:01:51;102590.19;;;9.45;71.21
61537;BME280;48695;53.480;-6.300;2023-01-28T13:04:24;102591.06;;;9.47;71.10
61537;BME280;48695;53.480;-6.300;2023-01-28T13:07:36;102591.13;;;9.49;71.16
61537;BME280;48695;53.480;-6.300;2023-01-28T13:09:51;102598.06;;;9.50;71.00
61537;BME280;48695;53.480;-6.300;2023-01-28T13:12:18;102589.41;;;9.52;71.17
61537;BME280;48695;53.480;-6.300;2023-01-28T13:14:44;102583.34;;;9.53;71.09
61537;BME280;48695;53.480;-6.300;2023-01-28T13:17:10;102579.88;;;9.54;71.20
61537;BME280;48695;53.480;-6.300;2023-01-28T13:19:37;102588.56;;;9.53;71.34
61537;BME280;48695;53.480;-6.300;2023-01-28T13:22:25;102588.56;;;9.53;70.96
61537;BME280;48695;53.480;-6.300;2023-01-28T13:24:51;102583.28;;;9.49;70.80
61537;BME280;48695;53.480;-6.300;2023-01-28T13:27:21;102584.13;;;9.48;70.81
61537;BME280;48695;53.480;-6.300;2023-01-28T13:29:47;102586.72;;;9.46;70.78
61537;BME280;48695;53.480;-6.300;2023-01-28T13:32:30;102589.34;;;9.46;71.13
61537;BME280;48695;53.480;-6.300;2023-01-28T13:34:59;102587.59;;;9.45;70.81
61537;BME280;48695;53.480;-6.300;2023-01-28T13:37:30;102577.16;;;9.45;70.70
61537;BME280;48695;53.480;-6.300;2023-01-28T13:40:00;102568.47;;;9.45;70.97
61537;BME280;48695;53.480;-6.300;2023-01-28T13:42:28;102571.06;;;9.43;70.88
61537;BME280;48695;53.480;-6.300;2023-01-28T13:44:54;102561.47;;;9.42;70.82
61537;BME280;48695;53.480;-6.300;2023-01-28T13:47:22;102558.84;;;9.42;71.24
61537;BME280;48695;53.480;-6.300;2023-01-28T13:49:55;102552.78;;;9.42;71.10
61537;BME280;48695;53.480;-6.300;2023-01-28T13:55:13;102543.22;;;9.42;70.92
61537;BME280;48695;53.480;-6.300;2023-01-28T14:08:21;102525.06;;;9.48;71.29
61537;BME280;48695;53.480;-6.300;2023-01-28T14:13:28;102515.50;;;9.50;71.03
61537;BME280;48695;53.480;-6.300;2023-01-28T14:16:04;102511.16;;;9.52;71.25
61537;BME280;48695;53.480;-6.300;2023-01-28T14:18:37;102514.69;;;9.54;70.93
61537;BME280;48695;53.480;-6.300;2023-01-28T14:21:07;102519.91;;;9.56;71.09
61537;BME280;48695;53.480;-6.300;2023-01-28T14:23:35;102526.88;;;9.57;70.91
61537;BME280;48695;53.480;-6.300;2023-01-28T14:28:47;102529.47;;;9.57;70.82
61537;BME280;48695;53.480;-6.300;2023-01-28T14:31:55;102544.28;;;9.58;70.92
61537;BME280;48695;53.480;-6.300;2023-01-28T14:34:10;102539.06;;;9.58;70.59
61537;BME280;48695;53.480;-6.300;2023-01-28T14:36:40;102538.16;;;9.57;70.80
61537;BME280;48695;53.480;-6.300;2023-01-28T14:41:42;102541.63;;;9.56;70.84
61537;BME280;48695;53.480;-6.300;2023-01-28T14:44:08;102550.31;;;9.55;70.75
61537;BME280;48695;53.480;-6.300;2023-01-28T14:46:39;102545.13;;;9.55;70.73
61537;BME280;48695;53.480;-6.300;2023-01-28T14:49:18;102539.84;;;9.52;70.78
61537;BME280;48695;53.480;-6.300;2023-01-28T14:57:08;102550.25;;;9.49;70.62
61537;BME280;48695;53.480;-6.300;2023-01-28T14:59:40;102557.19;;;9.47;70.49
61537;BME280;48695;53.480;-6.300;2023-01-28T15:02:15;102558.94;;;9.48;70.56
61537;BME280;48695;53.480;-6.300;2023-01-28T15:04:41;102563.25;;;9.48;70.29